sensor_id;sensor_type;location;lat;lon;timestamp;P1;durP1;ratioP1;P2;durP2;ratioP2
11620;SDS011;5866;49.094;11.900;2023-08-06T00:00:10;35.47;;;32.42;;
11620;SDS011;5866;49.094;11.900;2023-08-06T00:02:37;34.45;;;31.42;;
11620;SDS011;5866;49.094;11.900;2023-08-06T00:05:05;33.22;;;30.40;;
11620;SDS011;5866;49.094;11.900;2023-08-06T00:07:33;30.67;;;28.02;;
11620;SDS011;5866;49.094;11.900;2023-08-06T00:10:01;31.77;;;29.08;;
11620;SDS011;5866;49.094;11.900;2023-08-06T00:12:28;33.08;;;30.33;;
11620;SDS011;5866;49.094;11.900;2023-08-06T00:14:57;39.00;;;34.85;;
11620;SDS011;5866;49.094;11.900;2023-08-06T00:17:27;32.88;;;30.02;;
11620;SDS011;5866;49.094;11.900;2023-08-06T00:19:55;31.00;;;28.60;;
11620;SDS011;5866;49.094;11.900;2023-08-06T00:22:23;78.93;;;74.10;;
11620;SDS011;5866;49.094;11.900;2023-08-06T00:24:54;50.60;;;47.25;;
11620;SDS011;5866;49.094;11.900;2023-08-06T00:27:23;26.05;;;23.95;;
11620;SDS011;5866;49.094;11.900;2023-08-06T00:29:51;28.65;;;26.52;;
11620;SDS011;5866;49.094;11.900;2023-08-06T00:32:20;29.55;;;26.95;;
11620;SDS011;5866;49.094;11.900;2023-08-06T00:34:48;25.00;;;22.88;;
11620;SDS011;5866;49.094;11.900;2023-08-06T00:37:16;30.63;;;28.02;;
11620;SDS011;5866;49.094;11.900;2023-08-06T00:39:44;34.35;;;32.05;;
11620;SDS011;5866;49.094;11.900;2023-08-06T00:42:12;37.50;;;35.25;;
11620;SDS011;5866;49.094;11.900;2023-08-06T00:44:39;30.95;;;28.83;;
11620;SDS011;5866;49.094;11.900;2023-08-06T00:47:07;34.70;;;32.63;;
11620;SDS011;5866;49.094;11.900;2023-08-06T00:49:36;33.15;;;31.10;;
11620;SDS011;5866;49.094;11.900;2023-08-06T00:52:04;28.40;;;26.27;;
11620;SDS011;5866;49.094;11.900;2023-08-06T00:54:34;26.25;;;24.70;;
11620;SDS011;5866;49.094;11.900;2023-08-06T00:57:02;24.20;;;22.63;;
11620;SDS011;5866;49.094;11.900;2023-08-06T00:59:31;23.30;;;21.90;;
11620;SDS011;5866;49.094;11.900;2023-08-06T01:01:59;17.15;;;16.05;;
11620;SDS011;5866;49.094;11.900;2023-08-06T01:04:27;21.92;;;20.63;;
11620;SDS011;5866;49.094;11.900;2023-08-06T01:06:59;22.05;;;20.17;;
11620;SDS011;5866;49.094;11.900;2023-08-06T01:09:34;21.88;;;20.65;;
11620;SDS011;5866;49.094;11.900;2023-08-06T01:12:09;17.52;;;16.52;;
11620;SDS011;5866;49.094;11.900;2023-08-06T01:14:47;27.15;;;25.63;;
11620;SDS011;5866;49.094;11.900;2023-08-06T01:17:22;24.40;;;22.92;;
11620;SDS011;5866;49.094;11.900;2023-08-06T01:19:52;28.42;;;26.83;;
11620;SDS011;5866;49.094;11.900;2023-08-06T01:22:21;30.05;;;28.35;;
11620;SDS011;5866;49.094;11.900;2023-08-06T01:24:49;35.33;;;33.33;;
11620;SDS011;5866;49.094;11.900;2023-08-06T01:27:21;45.90;;;43.40;;
11620;SDS011;5866;49.094;11.900;2023-08-06T01:29:56;35.53;;;33.60;;
11620;SDS011;5866;49.094;11.900;2023-08-06T01:32:27;35.08;;;32.90;;
11620;SDS011;5866;49.094;11.900;2023-08-06T01:34:59;33.55;;;31.75;;
11620;SDS011;5866;49.094;11.900;2023-08-06T01:37:29;34.95;;;32.90;;
11620;SDS011;5866;49.094;11.900;2023-08-06T01:39:57;37.20;;;35.13;;
11620;SDS011;5866;49.094;11.900;2023-08-06T01:42:24;34.40;;;32.53;;
11620;SDS011;5866;49.094;11.900;2023-08-06T01:44:52;29.48;;;27.85;;
11620;SDS011;5866;49.094;11.900;2023-08-06T01:47:19;33.53;;;31.58;;
11620;SDS011;5866;49.094;11.900;2023-08-06T01:49:47;34.45;;;32.47;;
11620;SDS011;5866;49.094;11.900;2023-08-06T01:52:15;29.92;;;28.13;;
11620;SDS011;5866;49.094;11.900;2023-08-06T01:54:43;35.05;;;33.03;;
11620;SDS011;5866;49.094;11.900;2023-08-06T01:57:11;38.53;;;36.30;;
11620;SDS011;5866;49.094;11.900;2023-08-06T01:59:39;40.95;;;38.72;;
11620;SDS011;5866;49.094;11.900;2023-08-06T02:02:06;36.30;;;34.22;;
11620;SDS011;5866;49.094;11.900;2023-08-06T02:04:34;39.75;;;37.40;;
11620;SDS011;5866;49.094;11.900;2023-08-06T02:07:02;38.92;;;36.67;;
11620;SDS011;5866;49.094;11.900;2023-08-06T02:09:30;31.05;;;29.25;;
11620;SDS011;5866;49.094;11.900;2023-08-06T02:11:59;30.73;;;28.83;;
11620;SDS011;5866;49.094;11.900;2023-08-06T02:14:26;39.53;;;37.00;;
11620;SDS011;5866;49.094;11.900;2023-08-06T02:16:54;44.97;;;42.38;;
11620;SDS011;5866;49.094;11.900;2023-08-06T02:19:21;45.20;;;42.65;;
11620;SDS011;5866;49.094;11.900;2023-08-06T02:21:49;44.28;;;41.72;;
11620;SDS011;5866;49.094;11.900;2023-08-06T02:24:17;54.70;;;51.60;;
11620;SDS011;5866;49.094;11.900;2023-08-06T02:26:45;48.08;;;45.08;;
11620;SDS011;5866;49.094;11.900;2023-08-06T02:29:16;43.78;;;41.28;;
11620;SDS011;5866;49.094;11.900;2023-08-06T02:31:44;50.38;;;47.33;;
11620;SDS011;5866;49.094;11.900;2023-08-06T02:34:11;49.83;;;46.90;;
11620;SDS011;5866;49.094;11.900;2023-08-06T02:36:39;49.00;;;46.20;;
11620;SDS011;5866;49.094;11.900;2023-08-06T02:39:06;46.60;;;43.92;;
11620;SDS011;5866;49.094;11.900;2023-08-06T02:41:34;51.05;;;48.05;;
11620;SDS011;5866;49.094;11.900;2023-08-06T02:44:01;43.00;;;40.40;;
11620;SDS011;5866;49.094;11.900;2023-08-06T02:46:30;42.88;;;40.45;;
11620;SDS011;5866;49.094;11.900;2023-08-06T02:48:58;44.22;;;41.67;;
11620;SDS011;5866;49.094;11.900;2023-08-06T02:51:25;43.95;;;41.42;;
11620;SDS011;5866;49.094;11.900;2023-08-06T02:53:53;47.42;;;44.63;;
11620;SDS011;5866;49.094;11.900;2023-08-06T02:56:21;51.53;;;48.40;;
11620;SDS011;5866;49.094;11.900;2023-08-06T02:58:48;49.83;;;47.03;;
11620;SDS011;5866;49.094;11.900;2023-08-06T03:01:16;43.78;;;41.22;;
11620;SDS011;5866;49.094;11.900;2023-08-06T03:03:45;50.05;;;47.22;;
11620;SDS011;5866;49.094;11.900;2023-08-06T03:06:12;39.72;;;37.30;;
11620;SDS011;5866;49.094;11.900;2023-08-06T03:08:39;43.03;;;40.53;;
11620;SDS011;5866;49.094;11.900;2023-08-06T03:11:07;38.83;;;36.33;;
11620;SDS011;5866;49.094;11.900;2023-08-06T03:13:34;44.42;;;41.92;;
11620;SDS011;5866;49.094;11.900;2023-08-06T03:16:02;42.17;;;37.42;;
11620;SDS011;5866;49.094;11.900;2023-08-06T03:18:30;32.42;;;30.33;;
11620;SDS011;5866;49.094;11.900;2023-08-06T03:20:59;24.27;;;22.67;;
11620;SDS011;5866;49.094;11.900;2023-08-06T03:23:26;31.50;;;29.50;;
11620;SDS011;5866;49.094;11.900;2023-08-06T03:25:54;39.60;;;37.25;;
11620;SDS011;5866;49.094;11.900;2023-08-06T03:28:22;48.38;;;45.55;;
11620;SDS011;5866;49.094;11.900;2023-08-06T03:30:58;45.22;;;42.60;;
11620;SDS011;5866;49.094;11.900;2023-08-06T03:33:26;46.55;;;43.95;;
11620;SDS011;5866;49.094;11.900;2023-08-06T03:35:54;59.38;;;56.05;;
11620;SDS011;5866;49.094;11.900;2023-08-06T03:38:23;46.22;;;43.53;;
11620;SDS011;5866;49.094;11.900;2023-08-06T03:40:51;47.38;;;44.50;;
11620;SDS011;5866;49.094;11.900;2023-08-06T03:43:19;41.28;;;38.83;;
11620;SDS011;5866;49.094;11.900;2023-08-06T03:45:46;43.53;;;41.03;;
11620;SDS011;5866;49.094;11.900;2023-08-06T03:48:14;55.58;;;52.28;;
11620;SDS011;5866;49.094;11.900;2023-08-06T03:50:41;40.97;;;38.35;;
11620;SDS011;5866;49.094;11.900;2023-08-06T03:53:09;36.38;;;34.08;;
11620;SDS011;5866;49.094;11.900;2023-08-06T03:55:38;38.47;;;35.95;;
11620;SDS011;5866;49.094;11.900;2023-08-06T03:58:05;52.95;;;49.88;;
11620;SDS011;5866;49.094;11.900;2023-08-06T04:00:33;48.80;;;45.95;;
11620;SDS011;5866;49.094;11.900;2023-08-06T04:03:01;52.83;;;49.58;;
11620;SDS011;5866;49.094;11.900;2023-08-06T04:05:30;59.33;;;55.78;;
11620;SDS011;5866;49.094;11.900;2023-08-06T04:07:58;51.58;;;48.55;;
11620;SDS011;5866;49.094;11.900;2023-08-06T04:10:26;49.22;;;46.33;;
11620;SDS011;5866;49.094;11.900;2023-08-06T04:12:55;84.70;;;80.13;;
11620;SDS011;5866;49.094;11.900;2023-08-06T04:15:22;65.35;;;61.72;;
11620;SDS011;5866;49.094;11.900;2023-08-06T04:17:50;52.72;;;49.72;;
11620;SDS011;5866;49.094;11.900;2023-08-06T04:20:18;53.63;;;50.47;;
11620;SDS011;5866;49.094;11.900;2023-08-06T04:22:45;77.25;;;72.90;;
11620;SDS011;5866;49.094;11.900;2023-08-06T04:25:13;58.33;;;54.88;;
11620;SDS011;5866;49.094;11.900;2023-08-06T04:27:41;77.80;;;73.53;;
11620;SDS011;5866;49.094;11.900;2023-08-06T04:30:10;75.22;;;70.90;;
11620;SDS011;5866;49.094;11.900;2023-08-06T04:32:38;68.55;;;64.75;;
11620;SDS011;5866;49.094;11.900;2023-08-06T04:35:06;63.05;;;59.53;;
11620;SDS011;5866;49.094;11.900;2023-08-06T04:37:34;64.45;;;60.85;;
11620;SDS011;5866;49.094;11.900;2023-08-06T04:40:02;45.75;;;43.13;;
11620;SDS011;5866;49.094;11.900;2023-08-06T04:42:29;55.03;;;51.83;;
11620;SDS011;5866;49.094;11.900;2023-08-06T04:44:57;47.28;;;44.33;;
11620;SDS011;5866;49.094;11.900;2023-08-06T04:47:26;55.60;;;52.35;;
11620;SDS011;5866;49.094;11.900;2023-08-06T04:49:54;45.85;;;43.15;;
11620;SDS011;5866;49.094;11.900;2023-08-06T04:52:21;53.67;;;49.88;;
11620;SDS011;5866;49.094;11.900;2023-08-06T04:54:49;59.50;;;56.22;;
11620;SDS011;5866;49.094;11.900;2023-08-06T04:57:17;68.63;;;64.68;;
11620;SDS011;5866;49.094;11.900;2023-08-06T04:59:44;86.28;;;81.65;;
11620;SDS011;5866;49.094;11.900;2023-08-06T05:02:12;72.15;;;68.25;;
11620;SDS011;5866;49.094;11.900;2023-08-06T05:04:41;93.68;;;88.55;;
11620;SDS011;5866;49.094;11.900;2023-08-06T05:07:10;100.25;;;94.78;;
11620;SDS011;5866;49.094;11.900;2023-08-06T05:09:37;86.68;;;82.03;;
11620;SDS011;5866;49.094;11.900;2023-08-06T05:12:06;99.93;;;94.60;;
11620;SDS011;5866;49.094;11.900;2023-08-06T05:14:34;105.38;;;99.80;;
11620;SDS011;5866;49.094;11.900;2023-08-06T05:17:02;97.35;;;92.15;;
11620;SDS011;5866;49.094;11.900;2023-08-06T05:19:30;113.85;;;107.95;;
11620;SDS011;5866;49.094;11.900;2023-08-06T05:21:59;70.88;;;67.00;;
11620;SDS011;5866;49.094;11.900;2023-08-06T05:24:28;90.65;;;85.72;;
11620;SDS011;5866;49.094;11.900;2023-08-06T05:26:55;86.60;;;81.68;;
11620;SDS011;5866;49.094;11.900;2023-08-06T05:29:23;66.22;;;62.60;;
11620;SDS011;5866;49.094;11.900;2023-08-06T05:31:50;66.57;;;62.92;;
11620;SDS011;5866;49.094;11.900;2023-08-06T05:34:18;94.80;;;89.85;;
11620;SDS011;5866;49.094;11.900;2023-08-06T05:36:46;83.85;;;79.30;;
11620;SDS011;5866;49.094;11.900;2023-08-06T05:39:15;74.03;;;70.07;;
11620;SDS011;5866;49.094;11.900;2023-08-06T05:41:42;68.07;;;64.28;;
11620;SDS011;5866;49.094;11.900;2023-08-06T05:44:10;57.25;;;54.00;;
11620;SDS011;5866;49.094;11.900;2023-08-06T05:46:38;67.72;;;64.18;;
11620;SDS011;5866;49.094;11.900;2023-08-06T05:49:05;57.08;;;54.03;;
11620;SDS011;5866;49.094;11.900;2023-08-06T05:51:33;82.40;;;78.13;;
11620;SDS011;5866;49.094;11.900;2023-08-06T05:54:00;39.35;;;37.25;;
11620;SDS011;5866;49.094;11.900;2023-08-06T05:56:29;46.38;;;43.92;;
11620;SDS011;5866;49.094;11.900;2023-08-06T05:58:57;51.13;;;48.35;;
11620;SDS011;5866;49.094;11.900;2023-08-06T06:01:24;12.02;;;11.32;;
11620;SDS011;5866;49.094;11.900;2023-08-06T06:03:52;19.95;;;18.70;;
11620;SDS011;5866;49.094;11.900;2023-08-06T06:06:19;5.55;;;5.15;;
11620;SDS011;5866;49.094;11.900;2023-08-06T06:08:47;5.20;;;4.90;;
11620;SDS011;5866;49.094;11.900;2023-08-06T06:11:15;7.20;;;6.72;;
11620;SDS011;5866;49.094;11.900;2023-08-06T06:13:43;6.25;;;5.82;;
11620;SDS011;5866;49.094;11.900;2023-08-06T06:16:11;6.05;;;4.78;;
11620;SDS011;5866;49.094;11.900;2023-08-06T06:18:39;8.13;;;7.35;;
11620;SDS011;5866;49.094;11.900;2023-08-06T06:21:06;9.38;;;8.77;;
11620;SDS011;5866;49.094;11.900;2023-08-06T06:23:34;8.20;;;7.60;;
11620;SDS011;5866;49.094;11.900;2023-08-06T06:26:01;7.28;;;6.78;;
11620;SDS011;5866;49.094;11.900;2023-08-06T06:28:29;13.45;;;12.45;;
11620;SDS011;5866;49.094;11.900;2023-08-06T06:31:00;7.88;;;7.38;;
11620;SDS011;5866;49.094;11.900;2023-08-06T06:33:29;5.00;;;4.53;;
11620;SDS011;5866;49.094;11.900;2023-08-06T06:35:57;4.50;;;4.10;;
11620;SDS011;5866;49.094;11.900;2023-08-06T06:38:24;4.72;;;4.32;;
11620;SDS011;5866;49.094;11.900;2023-08-06T06:40:55;5.30;;;4.80;;
11620;SDS011;5866;49.094;11.900;2023-08-06T06:43:22;6.10;;;5.70;;
11620;SDS011;5866;49.094;11.900;2023-08-06T06:45:55;4.93;;;4.22;;
11620;SDS011;5866;49.094;11.900;2023-08-06T06:48:25;4.47;;;4.07;;
11620;SDS011;5866;49.094;11.900;2023-08-06T06:50:53;4.47;;;4.18;;
11620;SDS011;5866;49.094;11.900;2023-08-06T06:53:20;4.68;;;4.28;;
11620;SDS011;5866;49.094;11.900;2023-08-06T06:55:53;6.72;;;4.20;;
11620;SDS011;5866;49.094;11.900;2023-08-06T06:58:20;5.57;;;5.18;;
11620;SDS011;5866;49.094;11.900;2023-08-06T07:00:48;6.25;;;5.75;;
11620;SDS011;5866;49.094;11.900;2023-08-06T07:03:16;5.70;;;5.30;;
11620;SDS011;5866;49.094;11.900;2023-08-06T07:05:45;5.65;;;5.22;;
11620;SDS011;5866;49.094;11.900;2023-08-06T07:08:13;6.20;;;5.80;;
11620;SDS011;5866;49.094;11.900;2023-08-06T07:10:41;6.13;;;5.63;;
11620;SDS011;5866;49.094;11.900;2023-08-06T07:13:09;6.97;;;6.47;;
11620;SDS011;5866;49.094;11.900;2023-08-06T07:15:37;6.45;;;6.05;;
11620;SDS011;5866;49.094;11.900;2023-08-06T07:18:05;6.82;;;6.38;;
11620;SDS011;5866;49.094;11.900;2023-08-06T07:20:32;6.25;;;5.43;;
11620;SDS011;5866;49.094;11.900;2023-08-06T07:23:01;5.85;;;4.50;;
11620;SDS011;5866;49.094;11.900;2023-08-06T07:25:31;3.63;;;3.33;;
11620;SDS011;5866;49.094;11.900;2023-08-06T07:27:59;4.32;;;3.92;;
11620;SDS011;5866;49.094;11.900;2023-08-06T07:30:28;5.40;;;5.00;;
11620;SDS011;5866;49.094;11.900;2023-08-06T07:32:56;5.63;;;5.22;;
11620;SDS011;5866;49.094;11.900;2023-08-06T07:35:23;4.78;;;4.47;;
11620;SDS011;5866;49.094;11.900;2023-08-06T07:37:52;5.38;;;4.97;;
11620;SDS011;5866;49.094;11.900;2023-08-06T07:40:22;5.05;;;4.55;;
11620;SDS011;5866;49.094;11.900;2023-08-06T07:42:49;6.20;;;4.05;;
11620;SDS011;5866;49.094;11.900;2023-08-06T07:45:17;3.95;;;3.70;;
11620;SDS011;5866;49.094;11.900;2023-08-06T07:47:44;3.53;;;3.33;;
11620;SDS011;5866;49.094;11.900;2023-08-06T07:50:12;3.90;;;3.53;;
11620;SDS011;5866;49.094;11.900;2023-08-06T07:52:40;4.45;;;3.83;;
11620;SDS011;5866;49.094;11.900;2023-08-06T07:55:08;3.33;;;3.13;;
11620;SDS011;5866;49.094;11.900;2023-08-06T07:57:37;3.63;;;3.33;;
11620;SDS011;5866;49.094;11.900;2023-08-06T08:00:05;3.13;;;2.85;;
11620;SDS011;5866;49.094;11.900;2023-08-06T08:02:33;3.25;;;2.90;;
11620;SDS011;5866;49.094;11.900;2023-08-06T08:05:01;3.58;;;3.20;;
11620;SDS011;5866;49.094;11.900;2023-08-06T08:07:28;3.38;;;3.08;;
11620;SDS011;5866;49.094;11.900;2023-08-06T08:09:56;3.53;;;3.33;;
11620;SDS011;5866;49.094;11.900;2023-08-06T08:12:24;3.80;;;3.13;;
11620;SDS011;5866;49.094;11.900;2023-08-06T08:14:53;3.38;;;3.15;;
11620;SDS011;5866;49.094;11.900;2023-08-06T08:17:20;6.18;;;3.28;;
11620;SDS011;5866;49.094;11.900;2023-08-06T08:19:48;3.28;;;2.88;;
11620;SDS011;5866;49.094;11.900;2023-08-06T08:22:15;5.50;;;2.60;;
11620;SDS011;5866;49.094;11.900;2023-08-06T08:24:43;3.60;;;2.83;;
11620;SDS011;5866;49.094;11.900;2023-08-06T08:27:11;3.22;;;2.92;;
11620;SDS011;5866;49.094;11.900;2023-08-06T08:29:38;3.17;;;2.88;;
11620;SDS011;5866;49.094;11.900;2023-08-06T08:32:07;4.10;;;3.03;;
11620;SDS011;5866;49.094;11.900;2023-08-06T08:34:35;4.45;;;3.60;;
11620;SDS011;5866;49.094;11.900;2023-08-06T08:37:02;4.35;;;4.05;;
11620;SDS011;5866;49.094;11.900;2023-08-06T08:39:32;3.88;;;3.58;;
11620;SDS011;5866;49.094;11.900;2023-08-06T08:41:59;3.85;;;3.55;;
11620;SDS011;5866;49.094;11.900;2023-08-06T08:44:28;3.58;;;3.38;;
11620;SDS011;5866;49.094;11.900;2023-08-06T08:46:58;2.92;;;2.63;;
11620;SDS011;5866;49.094;11.900;2023-08-06T08:49:28;2.63;;;2.40;;
11620;SDS011;5866;49.094;11.900;2023-08-06T08:51:57;3.38;;;2.72;;
11620;SDS011;5866;49.094;11.900;2023-08-06T08:54:26;2.95;;;2.75;;
11620;SDS011;5866;49.094;11.900;2023-08-06T08:56:55;3.35;;;3.15;;
11620;SDS011;5866;49.094;11.900;2023-08-06T08:59:23;3.85;;;3.55;;
11620;SDS011;5866;49.094;11.900;2023-08-06T09:01:51;3.13;;;2.83;;
11620;SDS011;5866;49.094;11.900;2023-08-06T09:04:21;2.67;;;2.47;;
11620;SDS011;5866;49.094;11.900;2023-08-06T09:06:51;4.60;;;2.40;;
11620;SDS011;5866;49.094;11.900;2023-08-06T09:09:22;2.97;;;2.75;;
11620;SDS011;5866;49.094;11.900;2023-08-06T09:11:53;3.10;;;2.90;;
11620;SDS011;5866;49.094;11.900;2023-08-06T09:14:27;2.30;;;2.10;;
11620;SDS011;5866;49.094;11.900;2023-08-06T09:16:54;3.40;;;3.10;;
11620;SDS011;5866;49.094;11.900;2023-08-06T09:19:22;2.80;;;2.70;;
11620;SDS011;5866;49.094;11.900;2023-08-06T09:21:51;2.90;;;2.47;;
11620;SDS011;5866;49.094;11.900;2023-08-06T09:24:20;5.22;;;2.47;;
11620;SDS011;5866;49.094;11.900;2023-08-06T09:26:48;3.50;;;3.03;;
11620;SDS011;5866;49.094;11.900;2023-08-06T09:29:16;3.20;;;2.75;;
11620;SDS011;5866;49.094;11.900;2023-08-06T09:31:44;4.07;;;3.45;;
11620;SDS011;5866;49.094;11.900;2023-08-06T09:34:14;4.00;;;3.70;;
11620;SDS011;5866;49.094;11.900;2023-08-06T09:36:43;3.55;;;3.35;;
11620;SDS011;5866;49.094;11.900;2023-08-06T09:39:16;2.97;;;2.78;;
11620;SDS011;5866;49.094;11.900;2023-08-06T09:41:44;4.63;;;4.43;;
11620;SDS011;5866;49.094;11.900;2023-08-06T09:44:17;4.45;;;4.15;;
11620;SDS011;5866;49.094;11.900;2023-08-06T09:46:49;3.53;;;3.13;;
11620;SDS011;5866;49.094;11.900;2023-08-06T09:49:17;2.45;;;2.35;;
11620;SDS011;5866;49.094;11.900;2023-08-06T09:51:49;2.03;;;1.92;;
11620;SDS011;5866;49.094;11.900;2023-08-06T09:54:23;2.75;;;2.30;;
11620;SDS011;5866;49.094;11.900;2023-08-06T09:56:53;2.55;;;2.45;;
11620;SDS011;5866;49.094;11.900;2023-08-06T09:59:22;2.90;;;2.70;;
11620;SDS011;5866;49.094;11.900;2023-08-06T10:01:50;3.35;;;3.15;;
11620;SDS011;5866;49.094;11.900;2023-08-06T10:04:19;2.80;;;2.63;;
11620;SDS011;5866;49.094;11.900;2023-08-06T10:06:50;1.92;;;1.83;;
11620;SDS011;5866;49.094;11.900;2023-08-06T10:09:19;1.90;;;1.80;;
11620;SDS011;5866;49.094;11.900;2023-08-06T10:11:50;2.30;;;2.10;;
11620;SDS011;5866;49.094;11.900;2023-08-06T10:14:20;5.97;;;4.85;;
11620;SDS011;5866;49.094;11.900;2023-08-06T10:16:51;3.97;;;3.67;;
11620;SDS011;5866;49.094;11.900;2023-08-06T10:19:19;3.13;;;2.90;;
11620;SDS011;5866;49.094;11.900;2023-08-06T10:24:51;3.25;;;2.75;;
11620;SDS011;5866;49.094;11.900;2023-08-06T10:27:21;3.80;;;3.40;;
11620;SDS011;5866;49.094;11.900;2023-08-06T10:29:50;4.53;;;4.13;;
11620;SDS011;5866;49.094;11.900;2023-08-06T10:32:18;7.03;;;6.63;;
11620;SDS011;5866;49.094;11.900;2023-08-06T10:34:55;8.00;;;7.50;;
11620;SDS011;5866;49.094;11.900;2023-08-06T10:37:24;12.90;;;12.10;;
11620;SDS011;5866;49.094;11.900;2023-08-06T10:40:01;5.45;;;5.10;;
11620;SDS011;5866;49.094;11.900;2023-08-06T10:42:31;8.00;;;7.53;;
11620;SDS011;5866;49.094;11.900;2023-08-06T10:45:11;7.18;;;6.65;;
11620;SDS011;5866;49.094;11.900;2023-08-06T10:47:40;4.38;;;4.18;;
11620;SDS011;5866;49.094;11.900;2023-08-06T10:50:11;6.55;;;6.10;;
11620;SDS011;5866;49.094;11.900;2023-08-06T10:52:42;17.33;;;16.35;;
11620;SDS011;5866;49.094;11.900;2023-08-06T10:55:10;7.55;;;7.15;;
11620;SDS011;5866;49.094;11.900;2023-08-06T10:57:40;5.47;;;5.18;;
11620;SDS011;5866;49.094;11.900;2023-08-06T11:00:08;10.82;;;10.23;;
11620;SDS011;5866;49.094;11.900;2023-08-06T11:02:46;4.30;;;3.40;;
11620;SDS011;5866;49.094;11.900;2023-08-06T11:05:14;3.60;;;3.40;;
11620;SDS011;5866;49.094;11.900;2023-08-06T11:07:42;1.40;;;1.30;;
11620;SDS011;5866;49.094;11.900;2023-08-06T11:10:10;1.50;;;1.40;;
11620;SDS011;5866;49.094;11.900;2023-08-06T11:12:41;1.60;;;1.50;;
11620;SDS011;5866;49.094;11.900;2023-08-06T11:15:09;6.30;;;2.20;;
11620;SDS011;5866;49.094;11.900;2023-08-06T11:17:39;2.03;;;1.92;;
11620;SDS011;5866;49.094;11.900;2023-08-06T11:20:08;2.95;;;2.67;;
11620;SDS011;5866;49.094;11.900;2023-08-06T11:22:37;5.07;;;4.78;;
11620;SDS011;5866;49.094;11.900;2023-08-06T11:25:05;4.00;;;3.75;;
11620;SDS011;5866;49.094;11.900;2023-08-06T11:27:34;11.48;;;10.82;;
11620;SDS011;5866;49.094;11.900;2023-08-06T11:30:03;4.80;;;4.50;;
11620;SDS011;5866;49.094;11.900;2023-08-06T11:32:31;7.35;;;6.95;;
11620;SDS011;5866;49.094;11.900;2023-08-06T11:35:09;3.08;;;2.75;;
11620;SDS011;5866;49.094;11.900;2023-08-06T11:37:37;7.72;;;7.32;;
11620;SDS011;5866;49.094;11.900;2023-08-06T11:40:08;4.20;;;3.90;;
11620;SDS011;5866;49.094;11.900;2023-08-06T11:42:37;4.90;;;4.70;;
11620;SDS011;5866;49.094;11.900;2023-08-06T11:45:06;4.30;;;4.10;;
11620;SDS011;5866;49.094;11.900;2023-08-06T11:47:37;3.00;;;2.90;;
11620;SDS011;5866;49.094;11.900;2023-08-06T11:50:06;7.03;;;6.70;;
11620;SDS011;5866;49.094;11.900;2023-08-06T11:52:34;5.18;;;4.88;;
11620;SDS011;5866;49.094;11.900;2023-08-06T11:55:02;5.07;;;4.78;;
11620;SDS011;5866;49.094;11.900;2023-08-06T11:57:32;5.63;;;5.22;;
11620;SDS011;5866;49.094;11.900;2023-08-06T12:00:01;3.30;;;3.10;;
11620;SDS011;5866;49.094;11.900;2023-08-06T12:02:31;4.18;;;3.97;;
11620;SDS011;5866;49.094;11.900;2023-08-06T12:05:04;3.75;;;3.45;;
11620;SDS011;5866;49.094;11.900;2023-08-06T12:07:37;2.30;;;2.20;;
11620;SDS011;5866;49.094;11.900;2023-08-06T12:10:06;2.70;;;2.50;;
11620;SDS011;5866;49.094;11.900;2023-08-06T12:12:34;2.65;;;2.50;;
11620;SDS011;5866;49.094;11.900;2023-08-06T12:15:03;1.20;;;1.20;;
11620;SDS011;5866;49.094;11.900;2023-08-06T12:17:33;1.20;;;1.20;;
11620;SDS011;5866;49.094;11.900;2023-08-06T12:20:01;1.63;;;1.55;;
11620;SDS011;5866;49.094;11.900;2023-08-06T12:22:31;1.10;;;1.10;;
11620;SDS011;5866;49.094;11.900;2023-08-06T12:25:01;1.08;;;1.08;;
11620;SDS011;5866;49.094;11.900;2023-08-06T12:27:32;1.30;;;1.30;;
11620;SDS011;5866;49.094;11.900;2023-08-06T12:30:00;7.63;;;7.22;;
11620;SDS011;5866;49.094;11.900;2023-08-06T12:32:28;17.95;;;17.00;;
11620;SDS011;5866;49.094;11.900;2023-08-06T12:34:57;7.40;;;6.97;;
11620;SDS011;5866;49.094;11.900;2023-08-06T12:37:25;4.03;;;3.83;;
11620;SDS011;5866;49.094;11.900;2023-08-06T12:39:52;7.50;;;7.00;;
11620;SDS011;5866;49.094;11.900;2023-08-06T12:42:20;9.50;;;9.00;;
11620;SDS011;5866;49.094;11.900;2023-08-06T12:44:48;4.15;;;3.80;;
11620;SDS011;5866;49.094;11.900;2023-08-06T12:47:16;2.42;;;2.33;;
11620;SDS011;5866;49.094;11.900;2023-08-06T12:49:44;1.98;;;1.88;;
11620;SDS011;5866;49.094;11.900;2023-08-06T12:52:13;6.93;;;6.60;;
11620;SDS011;5866;49.094;11.900;2023-08-06T12:54:41;19.20;;;18.25;;
11620;SDS011;5866;49.094;11.900;2023-08-06T12:57:09;6.68;;;6.38;;
11620;SDS011;5866;49.094;11.900;2023-08-06T12:59:37;3.63;;;3.47;;
11620;SDS011;5866;49.094;11.900;2023-08-06T13:02:06;6.82;;;6.25;;
11620;SDS011;5866;49.094;11.900;2023-08-06T13:04:33;2.20;;;2.10;;
11620;SDS011;5866;49.094;11.900;2023-08-06T13:07:01;2.83;;;2.72;;
11620;SDS011;5866;49.094;11.900;2023-08-06T13:09:30;2.50;;;2.40;;
11620;SDS011;5866;49.094;11.900;2023-08-06T13:11:58;2.63;;;2.42;;
11620;SDS011;5866;49.094;11.900;2023-08-06T13:14:31;1.77;;;1.67;;
11620;SDS011;5866;49.094;11.900;2023-08-06T13:16:59;3.28;;;3.08;;
11620;SDS011;5866;49.094;11.900;2023-08-06T13:19:27;2.20;;;2.10;;
11620;SDS011;5866;49.094;11.900;2023-08-06T13:21:59;3.17;;;3.08;;
11620;SDS011;5866;49.094;11.900;2023-08-06T13:24:30;2.53;;;2.42;;
11620;SDS011;5866;49.094;11.900;2023-08-06T13:26:58;2.38;;;2.28;;
11620;SDS011;5866;49.094;11.900;2023-08-06T13:29:26;1.80;;;1.70;;
11620;SDS011;5866;49.094;11.900;2023-08-06T13:31:54;2.05;;;1.95;;
11620;SDS011;5866;49.094;11.900;2023-08-06T13:34:21;8.52;;;8.13;;
11620;SDS011;5866;49.094;11.900;2023-08-06T13:36:49;5.68;;;5.40;;
11620;SDS011;5866;49.094;11.900;2023-08-06T13:39:17;12.60;;;12.00;;
11620;SDS011;5866;49.094;11.900;2023-08-06T13:41:47;9.15;;;8.75;;
11620;SDS011;5866;49.094;11.900;2023-08-06T13:44:14;7.53;;;7.18;;
11620;SDS011;5866;49.094;11.900;2023-08-06T13:46:42;21.52;;;20.25;;
11620;SDS011;5866;49.094;11.900;2023-08-06T13:49:09;2.92;;;2.83;;
11620;SDS011;5866;49.094;11.900;2023-08-06T13:51:37;1.55;;;1.52;;
11620;SDS011;5866;49.094;11.900;2023-08-06T13:54:05;2.20;;;1.90;;
11620;SDS011;5866;49.094;11.900;2023-08-06T13:56:33;3.70;;;3.50;;
11620;SDS011;5866;49.094;11.900;2023-08-06T13:59:04;2.65;;;2.55;;
11620;SDS011;5866;49.094;11.900;2023-08-06T14:01:32;9.05;;;8.55;;
11620;SDS011;5866;49.094;11.900;2023-08-06T14:04:17;4.70;;;4.50;;
11620;SDS011;5866;49.094;11.900;2023-08-06T14:06:45;5.63;;;3.75;;
11620;SDS011;5866;49.094;11.900;2023-08-06T14:09:12;5.63;;;5.32;;
11620;SDS011;5866;49.094;11.900;2023-08-06T14:11:44;3.92;;;3.72;;
11620;SDS011;5866;49.094;11.900;2023-08-06T14:14:13;4.72;;;4.53;;
11620;SDS011;5866;49.094;11.900;2023-08-06T14:16:41;5.00;;;4.80;;
11620;SDS011;5866;49.094;11.900;2023-08-06T14:19:08;13.98;;;13.15;;
11620;SDS011;5866;49.094;11.900;2023-08-06T14:21:36;1.98;;;1.88;;
11620;SDS011;5866;49.094;11.900;2023-08-06T14:24:04;2.00;;;1.90;;
11620;SDS011;5866;49.094;11.900;2023-08-06T14:26:31;1.77;;;1.67;;
11620;SDS011;5866;49.094;11.900;2023-08-06T14:29:00;7.95;;;7.45;;
11620;SDS011;5866;49.094;11.900;2023-08-06T14:31:29;2.97;;;2.88;;
11620;SDS011;5866;49.094;11.900;2023-08-06T14:33:56;5.18;;;4.88;;
11620;SDS011;5866;49.094;11.900;2023-08-06T14:36:24;5.47;;;5.22;;
11620;SDS011;5866;49.094;11.900;2023-08-06T14:38:53;7.22;;;6.93;;
11620;SDS011;5866;49.094;11.900;2023-08-06T14:41:25;5.30;;;5.10;;
11620;SDS011;5866;49.094;11.900;2023-08-06T14:43:53;6.70;;;6.20;;
11620;SDS011;5866;49.094;11.900;2023-08-06T14:46:21;4.22;;;4.03;;